Time;durP1;ratioP1;P1;durP2;ratioP2;P2;SDS_P1;SDS_P2;PMS_P1;PMS_P2;Temp;Humidity;BMP_temperature;BMP_pressure;BME280_temperature;BME280_humidity;BME280_pressure;Samples;Min_cycle;Max_cycle;Signal;HPM_P1;HPM_P2
2023/01/01 00:01:26;;;;;;;3.67;3.00;;;15.90;99.90;;;;;;5009936;28;20446;-76
2023/01/01 00:03:53;;;;;;;4.35;3.08;;;15.70;99.90;;;;;;5009474;28;20389;-76
2023/01/01 00:06:19;;;;;;;3.65;3.35;;;15.60;99.90;;;;;;5010608;28;20385;-76
2023/01/01 00:08:45;;;;;;;5.53;3.67;;;15.60;99.90;;;;;;5004964;28;20500;-76
2023/01/01 00:11:14;;;;;;;3.33;2.70;;;15.60;1.00;;;;;;5010370;28;20447;-76
2023/01/01 00:13:40;;;;;;;3.55;2.40;;;15.60;99.90;;;;;;5009496;28;20397;-76
2023/01/01 00:16:13;;;;;;;2.80;2.60;;;15.70;99.90;;;;;;5010804;28;20388;-76
2023/01/01 00:18:39;;;;;;;4.30;3.22;;;15.60;99.90;;;;;;5010394;28;20906;-76
2023/01/01 00:21:12;;;;;;;3.90;3.20;;;15.40;1.00;;;;;;4992568;28;20437;-76
2023/01/01 00:23:38;;;;;;;4.80;3.60;;;15.20;99.90;;;;;;4988504;28;20459;-76
2023/01/01 00:26:12;;;;;;;3.37;3.07;;;15.30;99.90;;;;;;4990800;28;20488;-76
2023/01/01 00:28:42;;;;;;;4.23;3.37;;;15.20;99.90;;;;;;4990479;28;20877;-76
2023/01/01 00:31:12;;;;;;;4.10;3.30;;;15.20;1.00;;;;;;4990719;28;20409;-76
2023/01/01 00:33:38;;;;;;;3.20;2.70;;;15.10;1.00;;;;;;5003940;28;20414;-76
2023/01/01 00:36:15;;;;;;;4.50;2.83;;;15.10;1.00;;;;;;4990538;28;20482;-77
2023/01/01 00:38:44;;;;;;;3.53;2.17;;;15.10;1.00;;;;;;4989621;28;20390;-76
2023/01/01 00:41:13;;;;;;;2.80;2.20;;;15.20;99.90;;;;;;4990685;28;20880;-76
2023/01/01 00:43:39;;;;;;;3.65;2.33;;;15.20;99.90;;;;;;4989753;28;20382;-75
2023/01/01 00:46:08;;;;;;;5.20;2.17;;;15.10;1.00;;;;;;4994329;28;20397;-76
2023/01/01 00:48:33;;;;;;;3.47;2.63;;;15.90;53.30;;;;;;4998757;28;20769;-76
2023/01/01 00:50:59;;;;;;;2.45;1.80;;;15.20;99.90;;;;;;4990690;28;20421;-76
2023/01/01 00:53:25;;;;;;;2.85;2.05;;;15.40;1.00;;;;;;4989916;28;20943;-76
2023/01/01 00:55:55;;;;;;;2.67;2.00;;;15.30;37.20;;;;;;4990886;28;20416;-76
2023/01/01 00:58:23;;;;;;;2.88;2.08;;;15.40;37.40;;;;;;4992041;28;20389;-76
2023/01/01 01:00:49;;;;;;;2.20;1.65;;;15.50;1.00;;;;;;5003074;28;20415;-76
2023/01/01 01:03:30;;;;;;;2.13;1.80;;;15.60;1.00;;;;;;5012685;28;20385;-76
2023/01/01 01:06:08;;;;;;;2.00;1.63;;;15.40;1.00;;;;;;5012435;28;20891;-77
2023/01/01 01:08:36;;;;;;;2.72;1.70;;;15.50;1.00;;;;;;5006990;28;20448;-76
2023/01/01 01:11:17;;;;;;;2.30;1.65;;;15.40;1.00;;;;;;4993995;28;20908;-77
2023/01/01 01:13:46;;;;;;;1.90;1.60;;;15.20;53.90;;;;;;5006189;28;20500;-76
2023/01/01 01:16:15;;;;;;;2.50;1.95;;;15.10;99.90;;;;;;5011854;28;20401;-76
2023/01/01 01:18:41;;;;;;;2.00;1.80;;;15.20;99.90;;;;;;5012062;28;20389;-76
2023/01/01 01:21:07;;;;;;;2.60;1.80;;;15.20;99.90;;;;;;5013449;28;20388;-76
2023/01/01 01:23:36;;;;;;;2.20;2.00;;;15.10;99.90;;;;;;5149567;23;20633;-75
2023/01/01 01:26:14;;;;;;;2.15;1.70;;;15.30;99.90;;;;;;4935347;29;20408;-76
2023/01/01 01:28:40;;;;;;;3.15;1.90;;;15.10;99.90;;;;;;4935387;29;20954;-76
2023/01/01 01:31:05;;;;;;;2.42;1.65;;;15.20;99.90;;;;;;4935567;29;20898;-76
2023/01/01 01:33:31;;;;;;;2.00;1.70;;;15.20;99.90;;;;;;4931099;29;20409;-76
2023/01/01 01:35:57;;;;;;;1.60;1.50;;;15.20;99.90;;;;;;4916571;29;20385;-76
2023/01/01 01:38:22;;;;;;;2.70;1.90;;;15.30;19.50;;;;;;4916405;29;20876;-75
2023/01/01 01:40:48;;;;;;;2.33;1.67;;;15.30;1.00;;;;;;4916059;29;20934;-76
2023/01/01 01:43:24;;;;;;;2.65;1.95;;;15.40;1.00;;;;;;4915411;29;20437;-76
2023/01/01 01:45:55;;;;;;;2.88;1.70;;;15.40;1.00;;;;;;4916151;29;20463;-76
2023/01/01 01:48:22;;;;;;;2.03;1.83;;;15.30;1.90;;;;;;4916304;29;20408;-76
2023/01/01 01:50:49;;;;;;;2.67;1.88;;;15.20;96.70;;;;;;4930711;29;20530;-76
2023/01/01 01:53:24;;;;;;;2.40;1.60;;;15.30;99.90;;;;;;4915396;29;20477;-76
2023/01/01 01:56:03;;;;;;;2.70;1.75;;;15.20;93.40;;;;;;4914893;29;20404;-76
2023/01/01 01:58:30;;;;;;;2.70;2.22;;;15.20;70.00;;;;;;4915890;29;20812;-76
2023/01/01 02:00:56;;;;;;;3.27;2.00;;;15.90;1.00;;;;;;4916123;29;20390;-76
2023/01/01 02:03:43;;;;;;;2.80;2.10;;;15.30;1.00;;;;;;4915179;29;20397;-76
2023/01/01 02:06:10;;;;;;;2.80;1.90;;;15.20;71.60;;;;;;4916001;29;20433;-76
2023/01/01 02:08:36;;;;;;;2.13;1.92;;;15.10;99.90;;;;;;4915447;29;20442;-76
2023/01/01 02:11:01;;;;;;;2.25;1.80;;;15.10;99.90;;;;;;4915308;29;20909;-75
2023/01/01 02:13:27;;;;;;;2.80;1.90;;;15.10;99.90;;;;;;4914903;29;20385;-76
2023/01/01 02:16:27;;;;;;;2.42;2.00;;;15.00;1.00;;;;;;4915751;29;20460;-75
2023/01/01 02:19:22;;;;;;;1.98;1.77;;;15.00;1.00;;;;;;4915573;29;20412;-75
2023/01/01 02:22:01;;;;;;;2.70;1.80;;;15.20;99.90;;;;;;4915839;29;20825;-75
2023/01/01 02:24:53;;;;;;;2.80;1.70;;;15.00;1.00;;;;;;4914677;29;20960;-75
2023/01/01 02:27:43;;;;;;;3.20;1.63;;;14.80;99.90;;;;;;4914728;29;20409;-76
2023/01/01 02:30:10;;;;;;;3.00;1.60;;;14.80;99.90;;;;;;4917741;29;20492;-76
2023/01/01 02:32:59;;;;;;;3.55;2.03;;;14.90;1.00;;;;;;4915045;29;20393;-76
2023/01/01 02:35:33;;;;;;;3.10;1.50;;;15.00;1.00;;;;;;4915437;29;20488;-76
2023/01/01 02:38:03;;;;;;;2.50;1.70;;;14.80;1.00;;;;;;4915502;29;20757;-76
2023/01/01 02:40:29;;;;;;;3.17;2.10;;;14.70;1.00;;;;;;4915310;29;20389;-76
2023/01/01 02:42:56;;;;;;;4.78;3.88;;;14.60;1.00;;;;;;4914458;29;20464;-76
2023/01/01 02:46:02;;;;;;;3.85;3.10;;;14.40;99.90;;;;;;4915483;29;20409;-77
2023/01/01 02:48:48;;;;;;;3.90;3.25;;;14.30;1.00;;;;;;4897924;29;20451;-76
2023/01/01 02:51:44;;;;;;;4.40;3.35;;;14.20;99.90;;;;;;4913001;29;20417;-77
2023/01/01 02:54:55;;;;;;;8.48;7.53;;;14.20;1.00;;;;;;5183925;22;21282;-75
2023/01/01 02:57:50;;;;;;;13.87;11.87;;;13.80;1.00;;;;;;4951279;29;20393;-76
2023/01/01 03:00:28;;;;;;;19.33;14.15;;;14.50;1.00;;;;;;4963476;28;20899;-76
2023/01/01 03:03:27;;;;;;;3.55;3.13;;;13.70;77.10;;;;;;4949932;29;20401;-76
2023/01/01 03:06:21;;;;;;;2.50;2.30;;;14.10;1.00;;;;;;4946855;29;20480;-76
2023/01/01 03:09:31;;;;;;;4.40;2.78;;;14.30;95.20;;;;;;4952902;28;20481;-76
2023/01/01 03:12:19;;;;;;;4.32;3.25;;;14.10;1.00;;;;;;4953186;28;20943;-77
2023/01/01 03:15:03;;;;;;;3.20;2.45;;;13.70;10.10;;;;;;4951651;28;20409;-76
2023/01/01 03:17:34;;;;;;;3.55;2.20;;;13.50;99.90;;;;;;4953423;28;20406;-76
2023/01/01 03:20:05;;;;;;;2.60;1.73;;;13.40;99.90;;;;;;4971746;28;20404;-76
2023/01/01 03:22:34;;;;;;;3.60;2.15;;;13.90;99.90;;;;;;4970119;28;20539;-76
2023/01/01 03:25:07;;;;;;;3.67;1.98;;;13.80;1.00;;;;;;4971467;28;20396;-77
2023/01/01 03:27:43;;;;;;;3.60;2.35;;;13.40;99.90;;;;;;4971928;28;20442;-76
2023/01/01 03:30:10;;;;;;;3.08;2.00;;;13.20;99.90;;;;;;4967607;28;20390;-77
2023/01/01 03:33:00;;;;;;;2.90;1.60;;;13.60;99.90;;;;;;4958246;28;20470;-76
2023/01/01 03:35:47;;;;;;;2.92;2.20;;;13.60;1.00;;;;;;4971610;28;20395;-76
2023/01/01 03:38:21;;;;;;;4.05;2.40;;;13.40;99.90;;;;;;4971952;28;20475;-76
2023/01/01 03:40:51;;;;;;;2.40;2.20;;;13.20;1.00;;;;;;4971959;28;20404;-76
2023/01/01 03:43:36;;;;;;;2.70;2.40;;;12.90;1.00;;;;;;4971094;28;20427;-76
2023/01/01 03:46:06;;;;;;;2.88;2.10;;;12.80;1.00;;;;;;4957170;28;20899;-76
2023/01/01 03:48:54;;;;;;;2.20;1.90;;;13.30;99.90;;;;;;4952399;28;20417;-76
2023/01/01 03:51:41;;;;;;;2.33;2.03;;;13.30;99.90;;;;;;4967041;28;20412;-76
2023/01/01 03:54:26;;;;;;;2.28;1.98;;;13.00;1.00;;;;;;4970706;28;20826;-75
2023/01/01 03:57:00;;;;;;;2.47;2.13;;;12.70;1.00;;;;;;4971569;28;20408;-75
2023/01/01 03:59:33;;;;;;;2.00;1.80;;;12.60;1.00;;;;;;4971663;28;20399;-75
2023/01/01 04:02:02;;;;;;;2.70;2.00;;;12.50;1.00;;;;;;4968470;28;20425;-75
2023/01/01 04:04:28;;;;;;;2.78;2.10;;;12.50;1.00;;;;;;4949984;29;20397;-75
2023/01/01 04:06:54;;;;;;;2.38;1.98;;;12.40;1.00;;;;;;4952280;28;20405;-75
2023/01/01 04:09:27;;;;;;;2.95;1.60;;;12.70;1.00;;;;;;4954191;28;20844;-75
2023/01/01 04:12:03;;;;;;;2.40;1.73;;;13.30;99.90;;;;;;4950691;28;20422;-75
2023/01/01 04:14:28;;;;;;;2.03;1.50;;;13.40;99.90;;;;;;4951530;28;20389;-75
2023/01/01 04:16:57;;;;;;;2.00;1.30;;;13.90;96.40;;;;;;4950769;28;20397;-75
2023/01/01 04:19:23;;;;;;;1.95;1.33;;;14.10;8.90;;;;;;4952184;28;20741;-75
2023/01/01 04:21:49;;;;;;;1.50;1.40;;;14.30;1.00;;;;;;4968042;28;20403;-75
2023/01/01 04:24:14;;;;;;;1.33;1.00;;;14.50;1.00;;;;;;4964508;28;20962;-75
2023/01/01 04:26:40;;;;;;;2.05;1.50;;;14.60;99.90;;;;;;4952151;29;20397;-75
2023/01/01 04:29:06;;;;;;;2.00;1.45;;;14.50;99.90;;;;;;4952402;28;20393;-75
2023/01/01 04:31:32;;;;;;;2.00;1.60;;;14.40;1.00;;;;;;4952268;28;20420;-75
2023/01/01 04:33:58;;;;;;;2.28;1.45;;;14.40;1.00;;;;;;4955261;28;20386;-75
2023/01/01 04:36:23;;;;;;;2.38;1.90;;;14.90;99.90;;;;;;4958494;28;20424;-75
2023/01/01 04:38:49;;;;;;;1.90;1.40;;;14.50;5.10;;;;;;4956172;28;20474;-75
2023/01/01 04:41:14;;;;;;;3.40;1.40;;;14.40;99.90;;;;;;4954702;28;20488;-75
2023/01/01 04:43:40;;;;;;;1.80;1.30;;;14.30;99.90;;;;;;4955150;28;20822;-75
2023/01/01 04:46:05;;;;;;;2.80;1.50;;;14.30;1.00;;;;;;4955718;29;20492;-76
2023/01/01 04:48:31;;;;;;;1.50;1.40;;;14.30;59.90;;;;;;4955853;29;20386;-75
2023/01/01 04:50:57;;;;;;;2.17;1.70;;;14.00;62.30;;;;;;4971678;28;20786;-75
2023/01/01 04:53:23;;;;;;;1.90;1.63;;;14.20;1.00;;;;;;4954971;28;20402;-75
2023/01/01 04:55:50;;;;;;;1.88;1.25;;;14.10;99.90;;;;;;4954326;28;20418;-75
2023/01/01 04:58:15;;;;;;;1.30;1.20;;;14.30;99.90;;;;;;4955781;28;20398;-75
2023/01/01 05:00:41;;;;;;;2.00;1.27;;;13.80;1.00;;;;;;4954225;28;20409;-75
2023/01/01 05:03:06;;;;;;;1.70;1.60;;;13.70;1.00;;;;;;4954714;29;20450;-75
2023/01/01 05:05:32;;;;;;;1.42;1.20;;;13.50;1.00;;;;;;4972471;28;20400;-75
2023/01/01 05:07:57;;;;;;;1.60;1.50;;;13.60;1.00;;;;;;4972918;28;20392;-75
2023/01/01 05:10:23;;;;;;;2.53;1.10;;;13.70;99.90;;;;;;4970601;28;20404;-75
2023/01/01 05:12:48;;;;;;;1.58;1.27;;;13.50;1.00;;;;;;4974638;28;20774;-75
2023/01/01 05:15:14;;;;;;;1.43;1.27;;;13.50;1.00;;;;;;4974533;28;20391;-75
2023/01/01 05:17:39;;;;;;;2.00;1.57;;;13.60;99.90;;;;;;4974612;28;20396;-75
2023/01/01 05:20:05;;;;;;;2.90;1.60;;;13.60;99.90;;;;;;4963795;28;20406;-75
2023/01/01 05:22:31;;;;;;;2.80;1.70;;;13.50;99.90;;;;;;4954648;28;20397;-75
2023/01/01 05:24:56;;;;;;;2.50;1.70;;;13.50;99.90;;;;;;4953638;29;20397;-76
2023/01/01 05:27:22;;;;;;;2.17;1.50;;;13.30;99.90;;;;;;4955245;29;20405;-75
2023/01/01 05:29:47;;;;;;;1.75;1.60;;;13.70;1.00;;;;;;4955091;29;20407;-75
2023/01/01 05:32:13;;;;;;;1.40;1.20;;;13.50;99.90;;;;;;4956972;28;20511;-75
2023/01/01 05:34:38;;;;;;;1.80;1.30;;;13.60;1.00;;;;;;4958686;28;20467;-75
2023/01/01 05:37:04;;;;;;;3.22;1.40;;;13.70;9.10;;;;;;4965661;28;20410;-75
2023/01/01 05:39:29;;;;;;;2.10;1.50;;;13.80;99.90;;;;;;4955488;28;20428;-75
2023/01/01 05:41:56;;;;;;;2.43;1.20;;;13.80;1.00;;;;;;4954933;28;20397;-75
2023/01/01 05:44:21;;;;;;;2.50;1.20;;;14.00;1.00;;;;;;4961567;28;20404;-75
2023/01/01 05:46:47;;;;;;;1.17;1.07;;;14.20;99.90;;;;;;4974046;28;20381;-75
2023/01/01 05:49:12;;;;;;;2.20;1.10;;;14.50;1.00;;;;;;4973994;28;20411;-75
2023/01/01 05:51:38;;;;;;;2.25;1.30;;;14.50;99.90;;;;;;4959124;28;21107;-75
2023/01/01 05:54:04;;;;;;;1.90;1.50;;;14.60;99.90;;;;;;4953817;29;20464;-76
2023/01/01 05:56:29;;;;;;;2.20;1.30;;;14.50;99.90;;;;;;4954619;29;20765;-75
2023/01/01 05:58:55;;;;;;;1.90;1.30;;;14.40;99.90;;;;;;4953290;29;20437;-75
2023/01/01 06:01:23;;;;;;;3.22;1.25;;;14.30;99.90;;;;;;4953128;29;20864;-75
2023/01/01 06:03:50;;;;;;;2.28;1.60;;;14.40;99.90;;;;;;4965791;28;20454;-75
2023/01/01 06:06:18;;;;;;;3.85;1.70;;;14.10;1.00;;;;;;4972497;28;20847;-76
2023/01/01 06:08:58;;;;;;;2.40;1.70;;;14.10;1.00;;;;;;4961782;28;20409;-75
2023/01/01 06:11:25;;;;;;;2.70;1.60;;;14.20;1.00;;;;;;4954344;28;20449;-75
2023/01/01 06:13:57;;;;;;;2.53;1.63;;;14.50;99.90;;;;;;4953457;28;20876;-75
2023/01/01 06:16:24;;;;;;;1.70;1.30;;;14.20;1.00;;;;;;4954388;28;20441;-76
2023/01/01 06:18:49;;;;;;;2.05;1.73;;;14.30;1.00;;;;;;4954181;28;20865;-75
2023/01/01 06:21:26;;;;;;;1.42;1.30;;;14.50;99.90;;;;;;4955873;28;20437;-75
2023/01/01 06:23:53;;;;;;;3.60;1.60;;;14.60;99.90;;;;;;4952086;28;20390;-75
2023/01/01 06:26:22;;;;;;;2.50;1.50;;;14.60;99.90;;;;;;4952882;28;20421;-75
2023/01/01 06:28:48;;;;;;;2.28;1.30;;;14.60;99.90;;;;;;4954152;28;20401;-75
2023/01/01 06:31:16;;;;;;;2.45;1.70;;;14.40;99.90;;;;;;4953994;28;20417;-75
2023/01/01 06:33:42;;;;;;;1.75;1.60;;;14.30;99.90;;;;;;4963112;28;20419;-75
2023/01/01 06:36:10;;;;;;;2.37;1.70;;;14.10;1.00;;;;;;4960755;28;20472;-75
2023/01/01 06:38:39;;;;;;;3.28;1.80;;;14.10;1.00;;;;;;4953762;28;20493;-75
2023/01/01 06:41:06;;;;;;;3.40;1.80;;;13.80;1.00;;;;;;4952627;28;20402;-76
2023/01/01 06:43:33;;;;;;;2.20;1.40;;;13.50;99.90;;;;;;4952850;28;20525;-75
2023/01/01 06:46:25;;;;;;;4.28;2.10;;;13.50;1.00;;;;;;4953714;28;20485;-75
2023/01/01 06:48:57;;;;;;;2.60;1.60;;;13.50;1.00;;;;;;4951781;28;20496;-75
2023/01/01 06:51:25;;;;;;;4.30;1.60;;;13.60;99.90;;;;;;4953571;28;20564;-75
2023/01/01 06:53:51;;;;;;;4.20;2.10;;;13.70;1.00;;;;;;4952560;28;20397;-75
2023/01/01 06:56:18;;;;;;;2.90;1.70;;;13.50;1.00;;;;;;4968053;28;20393;-75
2023/01/01 06:58:44;;;;;;;1.90;1.60;;;13.40;1.00;;;;;;4972462;28;20842;-75
2023/01/01 07:01:16;;;;;;;2.07;1.70;;;12.90;1.00;;;;;;4972745;28;20400;-75
2023/01/01 07:03:43;;;;;;;2.88;1.85;;;12.60;99.90;;;;;;4971635;28;20388;-75
2023/01/01 07:06:09;;;;;;;3.05;2.30;;;12.30;99.90;;;;;;4972661;28;20399;-75
2023/01/01 07:08:35;;;;;;;4.20;2.25;;;12.10;1.00;;;;;;4956033;28;20428;-75
2023/01/01 07:11:01;;;;;;;2.10;1.90;;;11.90;1.00;;;;;;4953344;28;20414;-75
2023/01/01 07:15:54;;;;;;;3.10;2.30;;;11.50;1.00;;;;;;5008691;28;20432;-73
2023/01/01 07:18:22;;;;;;;3.85;2.20;;;11.70;1.00;;;;;;5011571;28;20377;-74
2023/01/01 07:20:53;;;;;;;3.90;2.20;;;11.70;1.00;;;;;;5010981;28;20396;-73
2023/01/01 07:23:19;;;;;;;4.10;1.80;;;11.40;1.00;;;;;;5010522;28;21122;-73
2023/01/01 07:25:44;;;;;;;3.92;2.30;;;11.30;1.00;;;;;;5011211;28;20397;-73
2023/01/01 07:28:11;;;;;;;3.30;2.30;;;11.40;1.00;;;;;;5011103;28;20392;-74
2023/01/01 07:30:36;;;;;;;3.03;2.28;;;11.30;1.00;;;;;;5011112;28;20409;-73
2023/01/01 07:33:02;;;;;;;3.93;2.30;;;11.30;1.00;;;;;;5010431;28;20397;-73
2023/01/01 07:35:27;;;;;;;2.20;2.00;;;11.30;1.00;;;;;;5011158;28;20387;-72
2023/01/01 07:37:53;;;;;;;2.65;2.42;;;11.30;1.00;;;;;;5011232;28;20377;-73
2023/01/01 07:40:18;;;;;;;3.93;2.60;;;11.30;5.90;;;;;;5011161;28;20404;-73
2023/01/01 07:42:44;;;;;;;3.67;2.30;;;11.30;1.00;;;;;;5010131;28;20895;-73
2023/01/01 07:45:11;;;;;;;5.40;2.85;;;11.30;1.00;;;;;;5011027;28;20543;-72
2023/01/01 07:47:37;;;;;;;3.60;2.03;;;11.30;1.00;;;;;;5011001;28;20763;-73
2023/01/01 07:50:04;;;;;;;4.13;2.57;;;11.40;1.00;;;;;;5011109;28;20389;-73
2023/01/01 07:52:29;;;;;;;4.10;2.80;;;11.30;1.00;;;;;;5007110;28;20906;-72
2023/01/01 07:54:55;;;;;;;5.03;2.22;;;11.10;32.50;;;;;;5010481;28;20399;-72
2023/01/01 07:57:20;;;;;;;2.97;2.30;;;11.10;23.50;;;;;;5025694;28;20456;-72
2023/01/01 07:59:46;;;;;;;2.80;2.30;;;11.10;42.70;;;;;;5010842;28;20420;-73
2023/01/01 08:02:11;;;;;;;3.58;2.63;;;11.10;51.60;;;;;;5010935;28;20420;-73
2023/01/01 08:04:38;;;;;;;3.38;2.45;;;11.00;56.30;;;;;;5009975;28;20391;-73
2023/01/01 08:07:04;;;;;;;2.70;2.20;;;11.10;60.60;;;;;;4995597;28;20944;-73
2023/01/01 08:09:29;;;;;;;3.30;2.30;;;11.10;57.70;;;;;;5017039;28;20408;-73
2023/01/01 08:11:57;;;;;;;2.93;2.60;;;11.00;99.90;;;;;;5016718;28;20412;-73
2023/01/01 08:14:24;;;;;;;3.92;2.70;;;11.00;99.90;;;;;;5016016;28;20439;-73
2023/01/01 08:16:50;;;;;;;3.70;2.95;;;11.00;99.90;;;;;;5017292;28;20388;-73
2023/01/01 08:19:15;;;;;;;4.33;2.57;;;11.00;99.90;;;;;;5017238;28;20487;-73
2023/01/01 08:21:41;;;;;;;3.83;2.70;;;11.00;99.90;;;;;;5017409;28;20392;-73
2023/01/01 08:24:06;;;;;;;6.20;3.00;;;11.10;99.90;;;;;;5015817;28;20522;-73
2023/01/01 08:26:33;;;;;;;3.50;2.43;;;11.10;99.90;;;;;;5016733;28;20480;-73
2023/01/01 08:29:03;;;;;;;3.15;2.40;;;11.30;75.40;;;;;;5017005;28;20769;-73
2023/01/01 08:31:29;;;;;;;3.30;2.40;;;11.40;43.00;;;;;;5016984;28;20997;-73
2023/01/01 08:33:54;;;;;;;2.55;2.20;;;11.70;1.00;;;;;;5016796;28;20484;-73
2023/01/01 08:36:20;;;;;;;5.03;2.35;;;11.70;1.00;;;;;;5016995;28;20388;-72
2023/01/01 08:38:46;;;;;;;3.33;2.20;;;11.70;1.00;;;;;;5017092;28;20759;-72
2023/01/01 08:41:11;;;;;;;5.40;2.70;;;11.60;1.00;;;;;;5017238;28;20400;-73
2023/01/01 08:43:37;;;;;;;2.97;2.20;;;11.50;98.80;;;;;;5016268;28;20389;-73
2023/01/01 08:46:03;;;;;;;3.22;2.70;;;11.80;1.00;;;;;;5016942;28;20407;-73
2023/01/01 08:48:28;;;;;;;3.78;2.50;;;11.80;1.00;;;;;;5016881;28;20412;-73
2023/01/01 08:50:55;;;;;;;4.32;2.58;;;11.60;9.40;;;;;;5017041;28;20400;-72
2023/01/01 08:53:21;;;;;;;2.70;2.20;;;11.60;74.70;;;;;;5015785;28;20466;-71
2023/01/01 08:56:07;;;;;;;3.95;2.92;;;11.50;39.60;;;;;;5016740;28;20392;-72
2023/01/01 08:58:35;;;;;;;3.92;2.80;;;11.70;2.30;;;;;;5016728;28;20511;-72
2023/01/01 09:01:01;;;;;;;4.30;2.65;;;11.70;31.00;;;;;;5016923;28;20949;-73
2023/01/01 09:03:26;;;;;;;3.97;2.80;;;11.80;30.80;;;;;;5015896;28;20400;-72
2023/01/01 09:05:52;;;;;;;6.72;3.50;;;11.80;45.80;;;;;;5016392;28;20463;-72
2023/01/01 09:08:19;;;;;;;4.15;2.83;;;11.80;99.90;;;;;;5016695;28;20459;-72
2023/01/01 09:10:45;;;;;;;4.15;2.60;;;11.80;26.30;;;;;;5016725;28;20439;-72
2023/01/01 09:13:13;;;;;;;4.20;2.97;;;11.90;1.00;;;;;;5015920;28;20426;-72
2023/01/01 09:15:41;;;;;;;3.30;2.50;;;12.10;1.00;;;;;;5016455;28;20420;-71
2023/01/01 09:18:07;;;;;;;3.83;2.80;;;12.10;1.00;;;;;;5030081;28;20396;-72
2023/01/01 09:20:32;;;;;;;3.87;2.20;;;12.10;24.30;;;;;;5013012;28;20392;-72
2023/01/01 09:22:58;;;;;;;2.80;2.60;;;12.10;20.40;;;;;;5012717;28;20882;-72
2023/01/01 09:25:23;;;;;;;2.75;2.55;;;12.20;1.00;;;;;;5013327;28;20885;-72
2023/01/01 09:27:55;;;;;;;3.60;3.13;;;12.50;1.00;;;;;;5013226;28;20393;-73
2023/01/01 09:30:20;;;;;;;3.38;2.80;;;12.50;1.00;;;;;;5012824;28;20504;-73
2023/01/01 09:32:46;;;;;;;5.43;3.20;;;12.60;1.00;;;;;;5012678;28;20441;-73
2023/01/01 09:35:12;;;;;;;6.18;2.80;;;12.70;1.00;;;;;;5013159;28;20870;-72
2023/01/01 09:37:37;;;;;;;5.03;3.00;;;12.90;1.00;;;;;;5013419;28;20401;-73
2023/01/01 09:40:03;;;;;;;2.90;2.70;;;13.00;1.00;;;;;;5013280;28;20810;-73
2023/01/01 09:42:38;;;;;;;5.00;2.83;;;13.00;1.00;;;;;;5012795;28;20479;-73
2023/01/01 09:45:14;;;;;;;4.78;2.85;;;13.10;1.00;;;;;;5000172;28;20405;-72
2023/01/01 09:47:43;;;;;;;3.50;2.83;;;13.30;1.00;;;;;;5012914;28;20403;-73
2023/01/01 09:50:16;;;;;;;4.80;2.70;;;13.40;1.00;;;;;;5013034;28;20857;-73
2023/01/01 09:52:55;;;;;;;5.13;2.60;;;13.50;1.00;;;;;;5012293;28;20409;-73
2023/01/01 09:55:51;;;;;;;5.63;3.00;;;13.60;1.00;;;;;;5012874;28;20416;-73
2023/01/01 09:58:22;;;;;;;5.22;3.00;;;13.80;99.90;;;;;;5012475;28;20945;-73
2023/01/01 10:00:53;;;;;;;3.80;3.15;;;13.90;8.40;;;;;;5012640;28;20416;-73
2023/01/01 10:03:30;;;;;;;5.60;2.70;;;14.10;1.00;;;;;;5012135;28;20869;-73
2023/01/01 10:06:19;;;;;;;5.00;2.90;;;14.10;99.90;;;;;;5012692;28;20859;-73
2023/01/01 10:09:00;;;;;;;4.50;2.70;;;14.30;99.90;;;;;;5012457;28;20393;-73
2023/01/01 10:11:41;;;;;;;3.15;2.55;;;14.40;99.90;;;;;;5012358;28;20419;-72
2023/01/01 10:14:32;;;;;;;4.80;2.80;;;14.50;99.90;;;;;;5011900;28;20413;-73
2023/01/01 10:17:01;;;;;;;3.90;2.40;;;14.50;1.00;;;;;;5012470;28;20804;-72
2023/01/01 10:19:36;;;;;;;4.28;2.42;;;14.70;1.00;;;;;;5012184;28;20455;-73
2023/01/01 10:22:28;;;;;;;3.70;2.20;;;14.70;1.00;;;;;;5012531;28;20392;-73
2023/01/01 10:25:20;;;;;;;4.18;2.17;;;14.80;1.00;;;;;;5006549;28;20418;-73
2023/01/01 10:28:09;;;;;;;3.45;1.92;;;15.00;1.00;;;;;;5012411;28;20397;-73
2023/01/01 10:30:35;;;;;;;2.97;2.10;;;15.20;1.00;;;;;;5027005;28;20397;-73
2023/01/01 10:33:00;;;;;;;4.95;2.85;;;15.20;1.00;;;;;;5011384;28;20480;-72
2023/01/01 10:35:34;;;;;;;4.78;2.80;;;15.30;99.90;;;;;;5012264;28;20873;-73
2023/01/01 10:38:02;;;;;;;4.70;2.63;;;15.40;99.90;;;;;;5012465;28;20385;-73
2023/01/01 10:40:28;;;;;;;4.00;2.20;;;15.50;99.90;;;;;;5012069;28;20385;-72
2023/01/01 10:42:58;;;;;;;2.85;2.10;;;15.50;99.90;;;;;;5011366;28;20439;-73
2023/01/01 10:45:39;;;;;;;3.30;2.10;;;15.60;99.90;;;;;;5011886;28;20400;-73
2023/01/01 10:48:16;;;;;;;3.05;2.10;;;15.80;1.00;;;;;;5012172;28;20419;-73
2023/01/01 10:50:54;;;;;;;3.08;1.92;;;16.00;99.90;;;;;;5011873;28;20417;-73
2023/01/01 10:53:24;;;;;;;3.38;2.20;;;16.20;99.90;;;;;;5026475;28;20393;-73
2023/01/01 10:55:59;;;;;;;5.68;2.28;;;16.30;99.90;;;;;;5012048;28;20763;-73
2023/01/01 10:58:36;;;;;;;4.03;1.83;;;16.40;1.00;;;;;;5011844;28;20385;-73
2023/01/01 11:01:03;;;;;;;3.75;1.98;;;16.60;1.00;;;;;;5011647;28;20471;-73
2023/01/01 11:03:29;;;;;;;4.35;1.88;;;16.70;1.00;;;;;;5010563;28;20409;-73
2023/01/01 11:06:18;;;;;;;5.17;1.80;;;16.80;1.00;;;;;;5011625;28;20533;-73
2023/01/01 11:08:49;;;;;;;3.75;2.08;;;16.80;1.00;;;;;;5004579;28;20861;-72
2023/01/01 11:11:37;;;;;;;3.28;2.10;;;17.00;1.00;;;;;;5011042;28;20412;-73
2023/01/01 11:14:07;;;;;;;3.67;2.60;;;16.90;1.00;;;;;;5025667;28;20487;-73
2023/01/01 11:16:38;;;;;;;4.60;2.33;;;17.10;1.00;;;;;;5011342;28;20799;-73
2023/01/01 11:19:06;;;;;;;5.10;3.80;;;17.30;1.00;;;;;;5011444;28;20463;-73
2023/01/01 11:21:33;;;;;;;4.40;4.00;;;17.30;1.00;;;;;;5010565;28;20416;-73
2023/01/01 11:24:24;;;;;;;3.97;2.30;;;17.60;1.00;;;;;;5010606;28;20420;-73
2023/01/01 11:26:52;;;;;;;2.78;2.15;;;18.40;1.00;;;;;;4993412;28;20397;-73
2023/01/01 11:29:28;;;;;;;2.20;1.83;;;18.70;1.00;;;;;;5011132;28;20472;-72
2023/01/01 11:31:55;;;;;;;3.08;2.15;;;19.30;1.00;;;;;;5010769;28;20411;-72
2023/01/01 11:34:37;;;;;;;4.70;1.90;;;19.60;1.00;;;;;;5009817;28;20403;-73
2023/01/01 11:37:37;;;;;;;2.90;1.92;;;19.30;1.00;;;;;;5011067;28;20752;-73
2023/01/01 11:40:14;;;;;;;3.00;2.17;;;20.10;99.90;;;;;;5008374;28;20427;-73
2023/01/01 11:42:47;;;;;;;4.30;2.00;;;20.60;99.90;;;;;;5009650;28;20414;-72
2023/01/01 11:45:20;;;;;;;3.20;1.80;;;20.70;99.90;;;;;;5010615;28;20435;-71
2023/01/01 11:47:57;;;;;;;3.55;1.98;;;19.90;99.90;;;;;;5011099;28;20407;-72
2023/01/01 11:50:33;;;;;;;3.72;1.83;;;19.40;99.90;;;;;;5010677;28;20818;-72
2023/01/01 11:53:23;;;;;;;7.45;2.45;;;19.50;99.90;;;;;;5010273;28;20815;-72
2023/01/01 11:56:16;;;;;;;3.40;1.90;;;19.60;99.90;;;;;;5010809;28;20430;-71
2023/01/01 11:59:02;;;;;;;3.88;1.90;;;20.00;99.90;;;;;;5010853;28;20717;-71
2023/01/01 12:01:57;;;;;;;2.80;2.20;;;19.80;99.90;;;;;;5010866;28;20377;-72
2023/01/01 12:04:44;;;;;;;4.00;2.10;;;20.20;99.90;;;;;;5008572;28;20498;-71
2023/01/01 12:07:15;;;;;;;2.80;2.00;;;20.80;99.90;;;;;;5010520;28;20440;-71
2023/01/01 12:10:01;;;;;;;3.90;1.83;;;21.30;99.90;;;;;;5010552;28;20948;-72
2023/01/01 12:12:37;;;;;;;2.30;1.63;;;19.80;99.90;;;;;;5010162;28;20413;-71
2023/01/01 12:15:13;;;;;;;4.13;1.97;;;20.20;99.90;;;;;;5010592;28;20404;-72
2023/01/01 12:18:05;;;;;;;5.22;2.10;;;19.80;99.90;;;;;;5010738;28;20832;-72
2023/01/01 12:20:39;;;;;;;4.50;2.03;;;19.30;99.90;;;;;;4972705;28;20401;-72
2023/01/01 12:23:07;;;;;;;2.17;1.67;;;18.90;99.90;;;;;;5009697;28;20400;-71
2023/01/01 12:25:42;;;;;;;2.75;1.98;;;18.80;99.90;;;;;;5010483;28;20748;-72
2023/01/01 12:28:47;;;;;;;4.50;2.15;;;18.20;99.90;;;;;;5009815;28;20508;-72
2023/01/01 12:31:21;;;;;;;4.10;2.20;;;17.70;99.90;;;;;;5010354;28;20420;-71
2023/01/01 12:34:05;;;;;;;3.72;2.00;;;17.40;1.00;;;;;;5009469;28;20462;-72
2023/01/01 12:36:51;;;;;;;5.40;2.20;;;17.40;1.00;;;;;;5010407;28;20388;-72
2023/01/01 12:39:25;;;;;;;3.88;2.40;;;17.40;1.00;;;;;;5010365;28;20397;-72
2023/01/01 12:42:19;;;;;;;4.18;2.30;;;17.20;1.00;;;;;;5010355;28;20479;-72
2023/01/01 12:45:22;;;;;;;3.90;2.55;;;17.20;1.00;;;;;;4994373;28;20397;-72
2023/01/01 12:48:36;;;;;;;2.65;2.17;;;17.20;1.00;;;;;;5025606;28;20811;-72
2023/01/01 12:51:40;;;;;;;3.60;2.40;;;17.20;1.00;;;;;;4954616;28;20425;-72
2023/01/01 12:54:05;;;;;;;4.03;2.60;;;17.40;1.00;;;;;;4951645;28;20464;-74
2023/01/01 12:57:02;;;;;;;4.57;2.70;;;17.40;1.00;;;;;;4996901;28;20385;-72
2023/01/01 12:59:38;;;;;;;5.15;2.38;;;17.30;1.00;;;;;;5014054;28;20376;-72
2023/01/01 13:02:13;;;;;;;2.50;2.10;;;17.40;1.00;;;;;;5014049;28;20412;-72
2023/01/01 13:04:40;;;;;;;4.10;2.40;;;17.40;1.00;;;;;;5016161;28;20394;-71
2023/01/01 13:07:10;;;;;;;6.15;2.70;;;17.40;1.00;;;;;;5031448;28;20881;-72
2023/01/01 13:09:39;;;;;;;4.82;1.90;;;17.50;1.00;;;;;;5013648;28;20925;-73
2023/01/01 13:12:09;;;;;;;3.60;1.77;;;17.60;99.90;;;;;;5013487;28;20492;-72
2023/01/01 13:14:39;;;;;;;3.80;1.75;;;17.50;99.90;;;;;;5029260;22;20501;-72
2023/01/01 13:17:19;;;;;;;3.92;1.70;;;17.40;99.90;;;;;;4993377;28;20441;-73
2023/01/01 13:19:45;;;;;;;4.32;1.80;;;17.50;99.90;;;;;;4993956;28;20418;-73
2023/01/01 13:22:25;;;;;;;3.47;1.98;;;17.50;99.90;;;;;;4991678;28;21253;-74